Bariloche, Argentina
Current Conditions -  °F | °C
As of 10:00 PM on Friday 19 Dec 2014 (Local Time) from SAZS Reporting Station
Rain Showers Rain Showers  
Wind Chill: 31°   Ceiling: 4500
Heat Index: 41°   Visibility: 6mi
Dew Point: 30°   Wind: 22mph
Humidity: 65%   Direction: 290°WNW
Pressure: 29.77"   Gusts: NA
Location:  41.14°S, 71.32°W
Report Text: SAZS 200100Z 29019KT 9999 SHRA FEW019BKN045 05/M01 Q1008
Loading
Personal Weather Stations






























Interactive Weather Map New forecast layout! Learn more

10-Day Weather Forecast

Advertisements
Track Severe Weather on mobile